Time;durP1;ratioP1;P1;durP2;ratioP2;P2;SDS_P1;SDS_P2;PMS_P1;PMS_P2;Temp;Humidity;BMP_temperature;BMP_pressure;BME280_temperature;BME280_humidity;BME280_pressure;Samples;Min_cycle;Max_cycle;Signal;HPM_P1;HPM_P2
2024/03/31 00:02:14;;;;;;;;;;;9.60;99.90;;;;;;4946988;28;19930;-65
2024/03/31 00:04:40;;;;;;;;;;;9.50;99.90;;;;;;4946196;28;19985;-65
2024/03/31 00:07:06;;;;;;;;;;;9.50;99.90;;;;;;4937417;28;20400;-65
2024/03/31 00:09:33;;;;;;;;;;;9.40;99.90;;;;;;4953906;28;19930;-65
2024/03/31 00:11:59;;;;;;;;;;;9.30;99.90;;;;;;4952880;28;19933;-65
2024/03/31 00:14:25;;;;;;;;;;;9.30;99.90;;;;;;4945577;28;19926;-65
2024/03/31 00:16:51;;;;;;;;;;;9.30;99.90;;;;;;4954359;28;19926;-65
2024/03/31 00:19:17;;;;;;;;;;;9.20;99.90;;;;;;4941451;28;19931;-65
2024/03/31 00:21:43;;;;;;;;;;;9.20;99.90;;;;;;4942495;28;19926;-65
2024/03/31 00:24:09;;;;;;;;;;;9.20;99.90;;;;;;4952497;28;19933;-65
2024/03/31 00:26:35;;;;;;;;;;;9.20;99.90;;;;;;4946053;28;19934;-65
2024/03/31 00:29:01;;;;;;;;;;;9.20;99.90;;;;;;4953376;28;19930;-65
2024/03/31 00:31:27;;;;;;;;;;;9.10;99.90;;;;;;4937694;28;19931;-65
2024/03/31 00:33:53;;;;;;;;;;;9.00;99.90;;;;;;4936304;28;19933;-65
2024/03/31 00:36:18;;;;;;;;;;;8.90;99.90;;;;;;4935068;28;19930;-65
2024/03/31 00:38:44;;;;;;;;;;;8.90;99.90;;;;;;4927020;28;20310;-65
2024/03/31 00:41:10;;;;;;;;;;;8.90;99.90;;;;;;4949896;28;20307;-65
2024/03/31 00:43:36;;;;;;;;;;;9.10;99.90;;;;;;4942596;28;19937;-65
2024/03/31 00:46:03;;;;;;;;;;;9.20;99.90;;;;;;4954405;28;20401;-65
2024/03/31 00:48:29;;;;;;;;;;;9.20;99.90;;;;;;4935690;28;19926;-65
2024/03/31 00:50:54;;;;;;;;;;;9.30;99.90;;;;;;4953111;28;19961;-65
2024/03/31 00:53:20;;;;;;;;;;;9.40;99.90;;;;;;4947366;28;20409;-65
2024/03/31 00:55:46;;;;;;;;;;;9.50;99.90;;;;;;4948291;28;20391;-65
2024/03/31 00:58:12;;;;;;;;;;;9.50;99.90;;;;;;4962043;28;19939;-65
2024/03/31 01:00:38;;;;;;;;;;;9.50;99.90;;;;;;4930402;28;19930;-65
2024/03/31 01:03:04;;;;;;;;;;;9.50;99.90;;;;;;4946809;28;19929;-65
2024/03/31 01:05:30;;;;;;;;;;;9.50;99.90;;;;;;4955310;28;19926;-65
2024/03/31 01:07:57;;;;;;;;;;;9.50;99.90;;;;;;4951282;28;19927;-65
2024/03/31 01:10:23;;;;;;;;;;;9.50;99.90;;;;;;4936847;28;19935;-65
2024/03/31 01:12:49;;;;;;;;;;;9.50;99.90;;;;;;4944603;28;19970;-65
2024/03/31 01:15:17;;;;;;;;;;;9.50;99.90;;;;;;4939760;28;20466;-66
2024/03/31 01:17:44;;;;;;;;;;;9.60;99.90;;;;;;4945744;28;20029;-65
2024/03/31 01:20:09;;;;;;;;;;;9.60;99.90;;;;;;4936429;28;20394;-65
2024/03/31 01:22:36;;;;;;;;;;;9.60;99.90;;;;;;4954225;28;19981;-65
2024/03/31 01:25:02;;;;;;;;;;;9.60;99.90;;;;;;4953402;28;19938;-65
2024/03/31 01:27:28;;;;;;;;;;;9.60;99.90;;;;;;4946913;28;20389;-65
2024/03/31 01:29:54;;;;;;;;;;;9.60;99.90;;;;;;4947983;28;19926;-65
2024/03/31 01:32:20;;;;;;;;;;;9.70;99.90;;;;;;4941295;28;20051;-65
2024/03/31 01:34:46;;;;;;;;;;;9.70;99.90;;;;;;4945409;28;19985;-65
2024/03/31 01:37:12;;;;;;;;;;;9.70;99.90;;;;;;4954576;28;19937;-65
2024/03/31 01:39:38;;;;;;;;;;;9.70;99.90;;;;;;4923644;28;20021;-65
2024/03/31 01:42:04;;;;;;;;;;;9.70;99.90;;;;;;4935406;28;19926;-65
2024/03/31 01:44:30;;;;;;;;;;;9.70;99.90;;;;;;4944692;28;19930;-65
2024/03/31 01:46:56;;;;;;;;;;;9.70;99.90;;;;;;4929701;28;19932;-65
2024/03/31 01:49:22;;;;;;;;;;;9.60;99.90;;;;;;4955412;28;20457;-65
2024/03/31 01:51:47;;;;;;;;;;;9.60;99.90;;;;;;4951990;28;20385;-65
2024/03/31 01:54:13;;;;;;;;;;;9.60;99.90;;;;;;4940975;28;19981;-65
2024/03/31 01:56:39;;;;;;;;;;;9.60;99.90;;;;;;4950264;28;19926;-65
2024/03/31 01:59:06;;;;;;;;;;;9.60;99.90;;;;;;4955141;28;20301;-65
2024/03/31 02:01:31;;;;;;;;;;;9.60;99.90;;;;;;4942702;28;19961;-65
2024/03/31 02:03:58;;;;;;;;;;;9.60;99.90;;;;;;4941476;28;19996;-65
2024/03/31 02:06:24;;;;;;;;;;;9.60;99.90;;;;;;4930891;28;19931;-65
2024/03/31 02:08:50;;;;;;;;;;;9.60;99.90;;;;;;4955883;28;20354;-65
2024/03/31 02:11:16;;;;;;;;;;;9.60;99.90;;;;;;4954387;28;20462;-65
2024/03/31 02:13:41;;;;;;;;;;;9.50;99.90;;;;;;4939976;28;19930;-65
2024/03/31 02:16:07;;;;;;;;;;;9.50;99.90;;;;;;4940392;28;19927;-65
2024/03/31 02:18:33;;;;;;;;;;;9.40;99.90;;;;;;4946008;28;19927;-65
2024/03/31 02:20:59;;;;;;;;;;;9.30;99.90;;;;;;4941450;28;19930;-65
2024/03/31 02:23:25;;;;;;;;;;;9.30;99.90;;;;;;4950979;28;19969;-65
2024/03/31 02:25:51;;;;;;;;;;;9.40;99.90;;;;;;4956005;28;19930;-65
2024/03/31 02:28:17;;;;;;;;;;;9.30;99.90;;;;;;4938291;28;19974;-65
2024/03/31 02:30:43;;;;;;;;;;;9.30;99.90;;;;;;4945670;28;19931;-65
2024/03/31 02:33:09;;;;;;;;;;;9.20;99.90;;;;;;4957206;28;20405;-65
2024/03/31 02:35:37;;;;;;;;;;;9.20;99.90;;;;;;4939815;28;20394;-65
2024/03/31 02:38:03;;;;;;;;;;;9.10;99.90;;;;;;4955860;28;19926;-65
2024/03/31 02:40:29;;;;;;;;;;;9.10;99.90;;;;;;4946226;28;19982;-65
2024/03/31 02:42:55;;;;;;;;;;;9.10;99.90;;;;;;4939899;28;19984;-65
2024/03/31 02:45:21;;;;;;;;;;;9.00;99.90;;;;;;4949561;28;19930;-65
2024/03/31 02:47:46;;;;;;;;;;;9.00;99.90;;;;;;4939856;28;19926;-65
2024/03/31 02:50:12;;;;;;;;;;;8.80;99.90;;;;;;4956892;28;19953;-65
2024/03/31 02:52:38;;;;;;;;;;;8.70;99.90;;;;;;4937888;28;19927;-65
2024/03/31 02:55:04;;;;;;;;;;;8.60;99.90;;;;;;4938777;28;19930;-65
2024/03/31 02:57:30;;;;;;;;;;;8.40;99.90;;;;;;4940575;28;20341;-65
2024/03/31 02:59:56;;;;;;;;;;;8.20;99.90;;;;;;4939561;28;19938;-65
2024/03/31 03:02:22;;;;;;;;;;;8.10;99.90;;;;;;4939872;28;19953;-65
2024/03/31 03:04:48;;;;;;;;;;;8.10;99.90;;;;;;4939964;28;19926;-65
2024/03/31 03:07:14;;;;;;;;;;;8.20;99.90;;;;;;4947420;28;19937;-65
2024/03/31 03:09:39;;;;;;;;;;;8.00;99.90;;;;;;4948710;28;20375;-65
2024/03/31 03:12:06;;;;;;;;;;;8.00;99.90;;;;;;4937981;28;19978;-65
2024/03/31 03:14:32;;;;;;;;;;;7.90;99.90;;;;;;4943754;28;19976;-65
2024/03/31 03:16:58;;;;;;;;;;;7.80;99.90;;;;;;4952830;28;20041;-65
2024/03/31 03:19:24;;;;;;;;;;;7.80;99.90;;;;;;4941893;28;20411;-65
2024/03/31 03:21:50;;;;;;;;;;;7.80;99.90;;;;;;4942542;28;19930;-65
2024/03/31 03:24:16;;;;;;;;;;;7.60;99.90;;;;;;4947520;28;19984;-65
2024/03/31 03:26:44;;;;;;;;;;;7.60;99.90;;;;;;4944386;28;19985;-65
2024/03/31 03:29:10;;;;;;;;;;;7.60;99.90;;;;;;4946178;28;19949;-65
2024/03/31 03:31:36;;;;;;;;;;;7.60;99.90;;;;;;4938751;28;20446;-65
2024/03/31 03:34:02;;;;;;;;;;;7.60;99.90;;;;;;4938662;28;19937;-65
2024/03/31 03:36:28;;;;;;;;;;;7.60;99.90;;;;;;4939047;28;20500;-65
2024/03/31 03:38:54;;;;;;;;;;;7.50;99.90;;;;;;4948448;28;19937;-65
2024/03/31 03:41:24;;;;;;;;;;;7.50;99.90;;;;;;4947109;28;19935;-65
2024/03/31 03:43:53;;;;;;;;;;;7.50;99.90;;;;;;4939931;28;20004;-65
2024/03/31 03:46:18;;;;;;;;;;;7.50;99.90;;;;;;4943220;28;19963;-65
2024/03/31 03:48:44;;;;;;;;;;;7.40;99.90;;;;;;4938181;28;19937;-65
2024/03/31 03:51:10;;;;;;;;;;;7.40;99.90;;;;;;4955682;28;19934;-65
2024/03/31 03:53:36;;;;;;;;;;;7.30;99.90;;;;;;4926566;29;19931;-65
2024/03/31 03:56:04;;;;;;;;;;;7.30;99.90;;;;;;4939575;28;19930;-65
2024/03/31 03:58:30;;;;;;;;;;;7.20;99.90;;;;;;4954673;28;19930;-65
2024/03/31 04:00:57;;;;;;;;;;;7.20;99.90;;;;;;4932792;28;19933;-65
2024/03/31 04:03:23;;;;;;;;;;;7.20;99.90;;;;;;4965326;28;19950;-65
2024/03/31 04:05:52;;;;;;;;;;;7.10;99.90;;;;;;4938557;28;20461;-65
2024/03/31 04:08:18;;;;;;;;;;;7.00;99.90;;;;;;4961922;28;19937;-65
2024/03/31 04:10:44;;;;;;;;;;;6.90;99.90;;;;;;4949992;28;19961;-65
2024/03/31 04:13:10;;;;;;;;;;;6.90;99.90;;;;;;4937886;28;19933;-64
2024/03/31 04:15:36;;;;;;;;;;;6.80;99.90;;;;;;4938719;28;19942;-65
2024/03/31 04:18:02;;;;;;;;;;;6.70;99.90;;;;;;4944318;28;19973;-65
2024/03/31 04:20:29;;;;;;;;;;;6.70;99.90;;;;;;4936390;28;20354;-65
2024/03/31 04:22:54;;;;;;;;;;;6.60;99.90;;;;;;4943758;28;19931;-65
2024/03/31 04:25:20;;;;;;;;;;;6.60;99.90;;;;;;4946425;28;19930;-65
2024/03/31 04:27:46;;;;;;;;;;;6.50;99.90;;;;;;4952717;28;20016;-65
2024/03/31 04:30:12;;;;;;;;;;;6.50;99.90;;;;;;4945077;28;20017;-65
2024/03/31 04:32:38;;;;;;;;;;;6.60;99.90;;;;;;4953057;28;19941;-65
2024/03/31 04:35:04;;;;;;;;;;;6.60;99.90;;;;;;4951487;28;20294;-65
2024/03/31 04:37:30;;;;;;;;;;;6.40;99.90;;;;;;4939034;28;19984;-65
2024/03/31 04:39:57;;;;;;;;;;;6.40;99.90;;;;;;4941844;28;19962;-65
2024/03/31 04:42:23;;;;;;;;;;;6.40;99.90;;;;;;4936270;28;20355;-65
2024/03/31 04:44:52;;;;;;;;;;;6.40;99.90;;;;;;4938400;28;19930;-65
2024/03/31 04:47:19;;;;;;;;;;;6.50;99.90;;;;;;4954179;28;19936;-65
2024/03/31 04:49:46;;;;;;;;;;;6.60;99.90;;;;;;4937093;28;19961;-65
2024/03/31 04:52:12;;;;;;;;;;;6.60;99.90;;;;;;4937866;28;19976;-65
2024/03/31 04:54:39;;;;;;;;;;;6.70;99.90;;;;;;4947040;28;20437;-65
2024/03/31 04:57:05;;;;;;;;;;;6.70;99.90;;;;;;4948191;28;19934;-65
2024/03/31 04:59:34;;;;;;;;;;;6.70;99.90;;;;;;4938947;28;20386;-65
2024/03/31 05:02:00;;;;;;;;;;;6.80;99.90;;;;;;4954384;28;19926;-65
2024/03/31 05:04:27;;;;;;;;;;;6.90;99.90;;;;;;4946617;28;19958;-66
2024/03/31 05:06:53;;;;;;;;;;;7.00;99.90;;;;;;4955092;28;20390;-65
2024/03/31 05:09:19;;;;;;;;;;;7.00;99.90;;;;;;4955128;28;19930;-65
2024/03/31 05:11:45;;;;;;;;;;;7.00;99.90;;;;;;4938627;28;19927;-65
2024/03/31 05:14:11;;;;;;;;;;;7.00;99.90;;;;;;4931222;28;19938;-65
2024/03/31 05:16:37;;;;;;;;;;;7.00;99.90;;;;;;4937398;28;19953;-65
2024/03/31 05:19:04;;;;;;;;;;;7.10;99.90;;;;;;4954196;28;19990;-65
2024/03/31 05:21:30;;;;;;;;;;;7.10;99.90;;;;;;4938072;28;19927;-65
2024/03/31 05:23:57;;;;;;;;;;;7.10;99.90;;;;;;4950699;28;19926;-65
2024/03/31 05:26:28;;;;;;;;;;;7.20;99.90;;;;;;4966541;28;19930;-65
2024/03/31 05:28:54;;;;;;;;;;;7.20;99.90;;;;;;4950415;28;19926;-65
2024/03/31 05:31:21;;;;;;;;;;;7.20;99.90;;;;;;4940788;28;19977;-65
2024/03/31 05:34:04;;;;;;;;;;;7.20;99.90;;;;;;4955797;28;19930;-65
2024/03/31 05:36:34;;;;;;;;;;;7.20;99.90;;;;;;4956421;28;19985;-65
2024/03/31 05:39:00;;;;;;;;;;;7.20;99.90;;;;;;4965211;28;19980;-65
2024/03/31 05:41:26;;;;;;;;;;;7.20;99.90;;;;;;4937670;28;19930;-65
2024/03/31 05:43:52;;;;;;;;;;;7.20;99.90;;;;;;4955176;28;20413;-65
2024/03/31 05:46:20;;;;;;;;;;;7.20;99.90;;;;;;4956008;28;19955;-65
2024/03/31 05:48:46;;;;;;;;;;;7.20;99.90;;;;;;4955248;28;19933;-65
2024/03/31 05:51:12;;;;;;;;;;;7.10;99.90;;;;;;4956435;28;19937;-65
2024/03/31 05:53:42;;;;;;;;;;;7.10;99.90;;;;;;4940633;28;20429;-65
2024/03/31 05:56:08;;;;;;;;;;;7.10;99.90;;;;;;4954689;28;19937;-65
2024/03/31 05:58:34;;;;;;;;;;;7.10;99.90;;;;;;4948369;28;19930;-65
2024/03/31 06:01:01;;;;;;;;;;;7.10;99.90;;;;;;4954480;28;19926;-65
2024/03/31 06:03:28;;;;;;;;;;;7.10;99.90;;;;;;4940406;28;19984;-65
2024/03/31 06:05:54;;;;;;;;;;;7.10;99.90;;;;;;4950732;28;19934;-65
2024/03/31 06:08:20;;;;;;;;;;;7.10;99.90;;;;;;4940017;28;19926;-65
2024/03/31 06:10:46;;;;;;;;;;;7.10;99.90;;;;;;4939021;28;19926;-65
2024/03/31 06:13:12;;;;;;;;;;;7.10;99.90;;;;;;4956363;28;19965;-65
2024/03/31 06:15:38;;;;;;;;;;;7.10;99.90;;;;;;4954748;28;19930;-65
2024/03/31 06:18:05;;;;;;;;;;;7.10;99.90;;;;;;4938322;28;19976;-65
2024/03/31 06:20:31;;;;;;;;;;;7.10;99.90;;;;;;4938481;28;19926;-65
2024/03/31 06:22:58;;;;;;;;;;;7.10;99.90;;;;;;4952821;28;19926;-65
2024/03/31 06:25:24;;;;;;;;;;;7.10;99.90;;;;;;4952698;28;19930;-65
2024/03/31 06:27:50;;;;;;;;;;;7.10;99.90;;;;;;4954977;28;19933;-65
2024/03/31 06:30:16;;;;;;;;;;;7.20;99.90;;;;;;4937429;28;19930;-65
2024/03/31 06:32:43;;;;;;;;;;;7.30;99.90;;;;;;4953407;28;19973;-65
2024/03/31 06:35:09;;;;;;;;;;;7.30;99.90;;;;;;4937280;28;19930;-65
2024/03/31 06:37:35;;;;;;;;;;;7.30;99.90;;;;;;4938864;28;19977;-65
2024/03/31 06:40:01;;;;;;;;;;;7.30;99.90;;;;;;4939418;28;20374;-65
2024/03/31 06:42:30;;;;;;;;;;;7.40;99.90;;;;;;4923654;28;19934;-65
2024/03/31 06:44:56;;;;;;;;;;;7.40;99.90;;;;;;4953598;28;20566;-65
2024/03/31 06:47:22;;;;;;;;;;;7.40;99.90;;;;;;4954801;28;19934;-66
2024/03/31 06:49:48;;;;;;;;;;;7.40;99.90;;;;;;4951358;28;19941;-65
2024/03/31 06:52:14;;;;;;;;;;;7.50;99.90;;;;;;4935667;28;19925;-65
2024/03/31 06:54:40;;;;;;;;;;;7.50;99.90;;;;;;4937845;28;19957;-65
2024/03/31 06:57:07;;;;;;;;;;;7.50;99.90;;;;;;4942338;28;19933;-65
2024/03/31 06:59:33;;;;;;;;;;;7.50;99.90;;;;;;4952885;28;19926;-65
2024/03/31 07:02:01;;;;;;;;;;;7.50;99.90;;;;;;4952921;28;19933;-65
2024/03/31 07:04:27;;;;;;;;;;;7.50;99.90;;;;;;4955591;28;19930;-65
2024/03/31 07:06:53;;;;;;;;;;;7.50;99.90;;;;;;4950816;28;19930;-65
2024/03/31 07:09:19;;;;;;;;;;;7.50;99.90;;;;;;4954821;28;20407;-65
2024/03/31 07:11:46;;;;;;;;;;;7.50;99.90;;;;;;4923499;28;19930;-65
2024/03/31 07:14:12;;;;;;;;;;;7.50;99.90;;;;;;4950445;28;20338;-65
2024/03/31 07:16:41;;;;;;;;;;;7.50;99.90;;;;;;4952552;28;19930;-65
2024/03/31 07:19:07;;;;;;;;;;;7.60;99.90;;;;;;4955206;28;19930;-64
2024/03/31 07:21:34;;;;;;;;;;;7.60;99.90;;;;;;4952956;28;19996;-65
2024/03/31 07:23:59;;;;;;;;;;;7.60;99.90;;;;;;4937964;28;19965;-65
2024/03/31 07:26:26;;;;;;;;;;;7.60;99.90;;;;;;4936624;28;19937;-65
2024/03/31 07:28:54;;;;;;;;;;;7.60;99.90;;;;;;4949459;28;19929;-65
2024/03/31 07:31:21;;;;;;;;;;;7.70;99.90;;;;;;4921714;28;19973;-65
2024/03/31 07:33:47;;;;;;;;;;;7.80;99.90;;;;;;4954169;28;19930;-65
2024/03/31 07:36:14;;;;;;;;;;;7.90;99.90;;;;;;4938127;28;19977;-65
2024/03/31 07:38:40;;;;;;;;;;;8.00;99.90;;;;;;4952638;28;19953;-65
2024/03/31 07:41:06;;;;;;;;;;;8.00;99.90;;;;;;4950567;28;20398;-65
2024/03/31 07:43:31;;;;;;;;;;;8.00;99.90;;;;;;4952253;28;19933;-65
2024/03/31 07:45:57;;;;;;;;;;;8.10;99.90;;;;;;4951135;28;20371;-65
2024/03/31 07:48:23;;;;;;;;;;;8.20;99.90;;;;;;4951621;28;20013;-65
2024/03/31 07:50:49;;;;;;;;;;;8.30;99.90;;;;;;4949934;28;20552;-65
2024/03/31 07:53:15;;;;;;;;;;;8.30;99.90;;;;;;4949416;28;20594;-65
2024/03/31 07:55:41;;;;;;;;;;;8.30;99.90;;;;;;4952739;28;19930;-65
2024/03/31 07:58:06;;;;;;;;;;;8.40;99.90;;;;;;4953253;28;19930;-69
2024/03/31 08:00:33;;;;;;;;;;;8.50;99.90;;;;;;4936169;28;19931;-65
2024/03/31 08:02:59;;;;;;;;;;;8.50;99.90;;;;;;4949573;28;19935;-65
2024/03/31 08:05:25;;;;;;;;;;;8.60;99.90;;;;;;4952237;28;19934;-66
2024/03/31 08:07:51;;;;;;;;;;;8.70;99.90;;;;;;4946782;28;19994;-65
2024/03/31 08:10:17;;;;;;;;;;;8.80;99.90;;;;;;4952134;28;19951;-66
2024/03/31 08:12:43;;;;;;;;;;;8.80;99.90;;;;;;4953151;28;19934;-66
2024/03/31 08:15:09;;;;;;;;;;;8.90;99.90;;;;;;4953184;28;19958;-66
2024/03/31 08:17:35;;;;;;;;;;;9.10;99.90;;;;;;4949315;28;20712;-65
2024/03/31 08:20:01;;;;;;;;;;;9.20;99.90;;;;;;4951639;28;19969;-65
2024/03/31 08:22:27;;;;;;;;;;;9.30;99.90;;;;;;4965496;28;19926;-65
2024/03/31 08:24:54;;;;;;;;;;;9.40;99.90;;;;;;4936259;28;20406;-65
2024/03/31 08:27:20;;;;;;;;;;;9.50;99.90;;;;;;4953486;28;19930;-65
2024/03/31 08:29:46;;;;;;;;;;;9.70;99.90;;;;;;4952496;28;20402;-65
2024/03/31 08:32:13;;;;;;;;;;;9.90;99.90;;;;;;4953538;28;19930;-65
2024/03/31 08:34:39;;;;;;;;;;;10.00;99.90;;;;;;4952168;28;19926;-65
2024/03/31 08:37:05;;;;;;;;;;;10.10;99.90;;;;;;4951144;28;20059;-65
2024/03/31 08:39:31;;;;;;;;;;;10.20;99.90;;;;;;4945371;28;19966;-66
2024/03/31 08:42:06;;;;;;;;;;;10.30;99.90;;;;;;4949406;28;20347;-65
2024/03/31 08:44:32;;;;;;;;;;;10.40;99.90;;;;;;4953000;28;19930;-65
2024/03/31 08:46:58;;;;;;;;;;;10.50;99.90;;;;;;4951794;28;19997;-66
2024/03/31 08:49:25;;;;;;;;;;;10.60;99.90;;;;;;4954395;28;19989;-65
2024/03/31 08:51:51;;;;;;;;;;;10.70;99.90;;;;;;4951422;28;19926;-65
2024/03/31 08:54:17;;;;;;;;;;;10.80;99.90;;;;;;4947954;28;19974;-66
2024/03/31 08:56:43;;;;;;;;;;;10.90;99.90;;;;;;4956232;28;19950;-66
2024/03/31 08:59:09;;;;;;;;;;;11.00;99.90;;;;;;4955476;28;19927;-65
2024/03/31 09:01:36;;;;;;;;;;;11.10;99.90;;;;;;4955333;28;19930;-66
2024/03/31 09:04:02;;;;;;;;;;;11.30;99.90;;;;;;4958422;28;20281;-66
2024/03/31 09:06:28;;;;;;;;;;;11.40;99.90;;;;;;4969616;28;19930;-65
2024/03/31 09:08:57;;;;;;;;;;;11.50;99.90;;;;;;4948294;28;20433;-66
2024/03/31 09:11:23;;;;;;;;;;;11.60;99.90;;;;;;4952451;28;20463;-65
2024/03/31 09:13:49;;;;;;;;;;;11.70;99.90;;;;;;4955805;28;19930;-65
2024/03/31 09:16:15;;;;;;;;;;;11.80;99.90;;;;;;4954948;28;19935;-65
2024/03/31 09:18:41;;;;;;;;;;;12.00;99.90;;;;;;4938544;28;20512;-65
2024/03/31 09:21:07;;;;;;;;;;;12.10;99.90;;;;;;4952526;28;20349;-66
2024/03/31 09:23:35;;;;;;;;;;;12.10;99.90;;;;;;4951191;28;19930;-65
2024/03/31 09:26:01;;;;;;;;;;;12.20;99.90;;;;;;4944647;28;19926;-65
2024/03/31 09:28:27;;;;;;;;;;;12.20;99.90;;;;;;4957209;28;19933;-65
2024/03/31 09:30:53;;;;;;;;;;;12.30;99.90;;;;;;4941499;28;19930;-65
2024/03/31 09:33:19;;;;;;;;;;;12.30;99.90;;;;;;4957065;28;19930;-65
2024/03/31 09:35:45;;;;;;;;;;;12.40;99.90;;;;;;4953490;28;19926;-65
2024/03/31 09:38:11;;;;;;;;;;;12.40;99.90;;;;;;4954830;28;20054;-65
2024/03/31 09:40:38;;;;;;;;;;;12.50;99.90;;;;;;4955371;28;20410;-66
2024/03/31 09:43:03;;;;;;;;;;;12.50;99.90;;;;;;4940191;28;19927;-65
2024/03/31 09:45:30;;;;;;;;;;;12.60;99.90;;;;;;4953832;28;19949;-65
2024/03/31 09:47:57;;;;;;;;;;;12.70;99.90;;;;;;4956691;28;19981;-66
2024/03/31 09:50:37;;;;;;;;;;;12.80;99.90;;;;;;4945777;28;20387;-66
2024/03/31 09:53:04;;;;;;;;;;;12.90;99.90;;;;;;4952751;28;20303;-65
2024/03/31 09:55:38;;;;;;;;;;;13.10;99.90;;;;;;4963729;28;19933;-66
2024/03/31 09:58:08;;;;;;;;;;;13.20;99.90;;;;;;4938866;28;19926;-65
2024/03/31 10:00:34;;;;;;;;;;;13.50;99.90;;;;;;4939902;28;20393;-65
2024/03/31 10:03:20;;;;;;;;;;;13.70;99.90;;;;;;4952509;28;20032;-65
2024/03/31 10:05:47;;;;;;;;;;;13.90;99.90;;;;;;4952423;28;19930;-65
2024/03/31 10:08:13;;;;;;;;;;;14.20;99.90;;;;;;4957128;28;19937;-66
2024/03/31 10:10:39;;;;;;;;;;;14.30;99.90;;;;;;4955423;28;20301;-65
2024/03/31 10:13:07;;;;;;;;;;;14.40;99.90;;;;;;4955158;28;20349;-65
2024/03/31 10:15:34;;;;;;;;;;;14.50;99.90;;;;;;4946823;28;20311;-66
2024/03/31 10:18:02;;;;;;;;;;;14.70;99.90;;;;;;4956124;28;19930;-65
2024/03/31 10:20:29;;;;;;;;;;;14.80;99.90;;;;;;4936971;28;20337;-65
2024/03/31 10:22:56;;;;;;;;;;;14.90;99.90;;;;;;4945790;28;19938;-65
2024/03/31 10:25:24;;;;;;;;;;;15.10;99.90;;;;;;4952711;28;20371;-66
2024/03/31 10:27:51;;;;;;;;;;;15.20;99.90;;;;;;4966912;28;19926;-66
2024/03/31 10:30:17;;;;;;;;;;;15.50;99.90;;;;;;4952042;28;19985;-66
2024/03/31 10:32:43;;;;;;;;;;;15.60;99.90;;;;;;4950052;28;19930;-66
2024/03/31 10:35:08;;;;;;;;;;;15.70;99.90;;;;;;4954357;28;20056;-66
2024/03/31 10:37:36;;;;;;;;;;;15.70;99.90;;;;;;4944075;28;19931;-66
2024/03/31 10:40:04;;;;;;;;;;;15.70;99.90;;;;;;4936977;28;20422;-65
2024/03/31 10:42:30;;;;;;;;;;;15.80;99.90;;;;;;4937580;28;19926;-66
2024/03/31 10:44:56;;;;;;;;;;;15.80;99.90;;;;;;4951903;28;20000;-66
2024/03/31 10:47:22;;;;;;;;;;;15.90;99.90;;;;;;4949062;28;19934;-66
2024/03/31 10:49:58;;;;;;;;;;;16.00;99.90;;;;;;4936938;28;20587;-66
2024/03/31 10:52:24;;;;;;;;;;;16.00;99.90;;;;;;4954198;28;19981;-66
2024/03/31 10:54:52;;;;;;;;;;;16.00;99.90;;;;;;4952447;28;19933;-66
2024/03/31 10:57:18;;;;;;;;;;;16.00;99.90;;;;;;4952344;28;19949;-66
2024/03/31 10:59:44;;;;;;;;;;;16.10;99.90;;;;;;4955810;28;19927;-66
2024/03/31 11:02:13;;;;;;;;;;;16.20;99.90;;;;;;4954298;28;19937;-66
2024/03/31 11:04:40;;;;;;;;;;;16.20;99.90;;;;;;4968829;28;19929;-65
2024/03/31 11:07:07;;;;;;;;;;;16.10;99.90;;;;;;4957646;28;19927;-65
2024/03/31 11:09:33;;;;;;;;;;;16.10;99.90;;;;;;4950428;28;19930;-66
2024/03/31 11:11:59;;;;;;;;;;;16.10;99.90;;;;;;4953198;28;19927;-65
2024/03/31 11:14:25;;;;;;;;;;;16.10;99.90;;;;;;4947998;28;19926;-65
2024/03/31 11:16:52;;;;;;;;;;;16.10;99.90;;;;;;4946212;28;19957;-66
2024/03/31 11:19:21;;;;;;;;;;;16.10;99.90;;;;;;4954564;28;19937;-66
2024/03/31 11:21:47;;;;;;;;;;;16.20;99.90;;;;;;4950037;28;19982;-66
2024/03/31 11:24:13;;;;;;;;;;;16.30;99.90;;;;;;4956220;28;20402;-66
2024/03/31 11:26:39;;;;;;;;;;;16.30;99.90;;;;;;4953305;28;19930;-66
2024/03/31 11:29:05;;;;;;;;;;;16.40;99.90;;;;;;4938993;28;19926;-66
2024/03/31 11:31:31;;;;;;;;;;;16.50;99.90;;;;;;4964439;28;19960;-66
2024/03/31 11:33:57;;;;;;;;;;;16.50;99.90;;;;;;4954330;28;19933;-66
2024/03/31 11:36:23;;;;;;;;;;;16.60;99.90;;;;;;4951478;28;19930;-66
2024/03/31 11:38:49;;;;;;;;;;;16.80;99.90;;;;;;4950313;28;19941;-66
2024/03/31 11:41:15;;;;;;;;;;;16.90;99.90;;;;;;4950747;28;19926;-66
2024/03/31 11:43:41;;;;;;;;;;;16.90;99.90;;;;;;4952463;28;20857;-66
2024/03/31 11:46:07;;;;;;;;;;;17.00;99.90;;;;;;4944486;28;19932;-66
2024/03/31 11:48:33;;;;;;;;;;;17.00;99.90;;;;;;4952774;28;20444;-65
2024/03/31 11:50:59;;;;;;;;;;;17.00;99.90;;;;;;4953496;28;19934;-66
2024/03/31 11:53:25;;;;;;;;;;;17.10;99.90;;;;;;4949644;28;19981;-66
2024/03/31 11:55:51;;;;;;;;;;;17.10;99.90;;;;;;4951296;28;19927;-66
2024/03/31 11:58:17;;;;;;;;;;;17.10;99.90;;;;;;4954408;28;19961;-65
2024/03/31 12:00:50;;;;;;;;;;;17.20;99.90;;;;;;4951293;28;19934;-65
2024/03/31 12:03:15;;;;;;;;;;;17.30;99.90;;;;;;4933030;28;20017;-65
2024/03/31 12:05:44;;;;;;;;;;;17.40;99.90;;;;;;4950500;28;19933;-66
2024/03/31 12:08:10;;;;;;;;;;;17.50;99.90;;;;;;4950327;28;19934;-66
2024/03/31 12:10:36;;;;;;;;;;;17.50;99.90;;;;;;4948694;28;20037;-65
2024/03/31 12:13:03;;;;;;;;;;;17.60;99.90;;;;;;4952246;28;19934;-65
2024/03/31 12:15:29;;;;;;;;;;;17.60;99.90;;;;;;4953150;28;19934;-65
2024/03/31 12:17:59;;;;;;;;;;;17.60;99.90;;;;;;4937628;28;19926;-65
2024/03/31 12:20:25;;;;;;;;;;;17.60;99.90;;;;;;4937048;28;19926;-66
2024/03/31 12:22:51;;;;;;;;;;;17.60;99.90;;;;;;4951457;28;19978;-66
2024/03/31 12:25:17;;;;;;;;;;;17.60;99.90;;;;;;4953952;28;19961;-65
2024/03/31 12:27:43;;;;;;;;;;;17.60;99.90;;;;;;4944944;28;19930;-65
2024/03/31 12:30:09;;;;;;;;;;;17.60;99.90;;;;;;4954035;28;19933;-65
2024/03/31 12:32:35;;;;;;;;;;;17.60;99.90;;;;;;4954658;28;19957;-65
2024/03/31 12:35:03;;;;;;;;;;;17.50;99.90;;;;;;4954299;28;20442;-65
2024/03/31 12:37:29;;;;;;;;;;;17.50;99.90;;;;;;4947897;28;20411;-65
2024/03/31 12:39:56;;;;;;;;;;;17.50;99.90;;;;;;4951591;28;19926;-66
2024/03/31 12:42:26;;;;;;;;;;;17.50;99.90;;;;;;4949278;28;20466;-65
2024/03/31 12:44:58;;;;;;;;;;;17.70;99.90;;;;;;4952719;28;19927;-65
2024/03/31 12:47:24;;;;;;;;;;;17.90;99.90;;;;;;4949927;28;20432;-65
2024/03/31 12:49:50;;;;;;;;;;;18.00;99.90;;;;;;4950801;28;19930;-66
2024/03/31 12:52:16;;;;;;;;;;;18.10;99.90;;;;;;4950902;28;20306;-66
2024/03/31 12:54:42;;;;;;;;;;;18.30;99.90;;;;;;4950754;28;19965;-66
2024/03/31 12:57:08;;;;;;;;;;;18.40;99.90;;;;;;4950418;28;19926;-65
2024/03/31 12:59:38;;;;;;;;;;;18.50;99.90;;;;;;4950562;28;19985;-65
2024/03/31 13:02:04;;;;;;;;;;;18.70;99.90;;;;;;4949110;28;19984;-66
2024/03/31 13:04:30;;;;;;;;;;;18.80;99.90;;;;;;4948443;28;19981;-65
2024/03/31 13:06:56;;;;;;;;;;;19.00;99.90;;;;;;4949829;28;19930;-65
2024/03/31 13:09:22;;;;;;;;;;;19.10;99.90;;;;;;4944253;28;20017;-65
2024/03/31 13:11:49;;;;;;;;;;;19.20;99.90;;;;;;4952942;28;19926;-65
2024/03/31 13:14:15;;;;;;;;;;;19.30;99.90;;;;;;4952422;28;19926;-65
2024/03/31 13:16:41;;;;;;;;;;;19.50;99.90;;;;;;4952069;28;19993;-66
2024/03/31 13:19:07;;;;;;;;;;;19.60;99.90;;;;;;4961169;28;19933;-66
2024/03/31 13:21:33;;;;;;;;;;;19.70;99.90;;;;;;4953062;28;19930;-65
2024/03/31 13:23:59;;;;;;;;;;;19.90;99.90;;;;;;4952073;28;20474;-66
2024/03/31 13:26:25;;;;;;;;;;;19.90;99.90;;;;;;4950252;28;19927;-66
2024/03/31 13:28:50;;;;;;;;;;;20.00;99.90;;;;;;4922686;28;19933;-66
2024/03/31 13:31:16;;;;;;;;;;;20.10;99.90;;;;;;4943849;28;19927;-65
2024/03/31 13:33:42;;;;;;;;;;;20.20;99.90;;;;;;4953979;28;19926;-66
2024/03/31 13:36:08;;;;;;;;;;;20.20;99.90;;;;;;4953404;28;19927;-66
2024/03/31 13:38:34;;;;;;;;;;;20.10;99.90;;;;;;4952615;28;20310;-66
2024/03/31 13:41:00;;;;;;;;;;;20.20;99.90;;;;;;4953179;28;19934;-65
2024/03/31 13:43:26;;;;;;;;;;;20.40;99.90;;;;;;4954266;28;19931;-65
2024/03/31 13:45:52;;;;;;;;;;;20.50;99.90;;;;;;4957906;28;19937;-66
2024/03/31 13:48:18;;;;;;;;;;;20.70;99.90;;;;;;4945472;28;19930;-66
2024/03/31 13:50:43;;;;;;;;;;;20.80;99.90;;;;;;4943873;28;20343;-65
2024/03/31 13:53:09;;;;;;;;;;;20.80;99.90;;;;;;4955056;28;19977;-65
2024/03/31 13:55:35;;;;;;;;;;;20.90;99.90;;;;;;4961367;28;20411;-65
2024/03/31 13:58:01;;;;;;;;;;;20.90;99.90;;;;;;4955659;28;19977;-66
2024/03/31 14:00:27;;;;;;;;;;;21.10;99.90;;;;;;4947878;28;20379;-65
2024/03/31 14:02:54;;;;;;;;;;;21.20;99.90;;;;;;4948708;28;19937;-65
2024/03/31 14:05:19;;;;;;;;;;;21.30;99.90;;;;;;4955270;28;19961;-66
2024/03/31 14:07:45;;;;;;;;;;;21.40;99.90;;;;;;4957514;28;19933;-64
2024/03/31 14:10:12;;;;;;;;;;;21.40;99.90;;;;;;4944975;28;19930;-66
2024/03/31 14:12:40;;;;;;;;;;;21.50;99.90;;;;;;4957552;28;19930;-66
2024/03/31 14:15:06;;;;;;;;;;;21.60;99.90;;;;;;4951503;28;20050;-65
2024/03/31 14:17:33;;;;;;;;;;;21.70;99.90;;;;;;4961994;28;19926;-65
2024/03/31 14:19:59;;;;;;;;;;;21.80;99.90;;;;;;4954538;28;19981;-66